Latest Coastal Weather Observations for Smithton

IDT60701

Issued at 10:32 am EST Sunday 31 July 2016 (issued every 10 minutes, with the page automatically refreshed every 10 minutes)

About coastal observations | Map of coastal stations | Coastal observations for TAS | Marine services | Other Formats
Station Details ID: 091292 Name: SMITHTON AERODROME Lat: -40.83 Lon: 145.08 Height: 7.5 m
Data from the previous 72 hours. | See also: Recent months at Smithton
Date/Time
EST
Temp
°C
Wind Pressure Rain since
9am
mm
Weather Cloud Vis
km
Sea
Height
m
Swell
Dir  Spd
kts
Gust
kts
hPa Trend Height
m
Period
s
Dir
31/10:30am 12.0 WSW 15 21 1012.8 - 0.0 - - - - - - -
31/10:00am 12.2 W 13 17 1012.5 - 0.0 - - - - - - -
31/09:30am 11.6 WSW 12 18 1012.1 - 0.0 - - - - - - -
31/09:00am 10.9 WSW 11 14 1011.9 - 6.2 - - - - - - -
31/08:30am 9.9 WSW 7 11 1011.7 - 6.2 - - - - - - -
31/08:00am 9.4 W 10 12 1011.1 - 6.2 - - - - - - -
31/07:30am 9.3 W 12 16 1010.5 - 6.2 - - - - - - -
31/07:00am 9.9 WSW 14 19 1010.0 - 6.2 - - - - - - -
31/06:30am 9.9 WSW 14 20 1009.4 - 6.2 - - - - - - -
31/06:00am 10.3 W 13 20 1008.8 - 6.2 - - - - - - -
31/05:30am 10.5 W 14 20 1008.3 - 6.2 - - - - - - -
31/05:00am 10.3 W 10 13 1008.2 - 6.2 - - - - - - -
31/04:30am 9.9 W 10 13 1007.9 - 6.2 - - - - - - -
31/04:00am 10.3 W 11 15 1007.8 - 6.2 - - - - - - -
31/03:30am 10.3 W 12 16 1007.8 - 6.2 - - - - - - -
31/03:00am 10.4 W 10 12 1007.6 - 6.2 - - - - - - -
31/02:30am 10.9 WSW 12 17 1007.6 - 6.2 - - - - - - -
31/02:00am 11.2 W 10 16 1007.4 - 5.8 - - - - - - -
31/01:30am 11.4 W 13 18 1007.0 - 5.8 - - - - - - -
31/01:00am 12.2 W 17 22 1006.8 - 5.8 - - - - - - -
31/12:30am 12.2 WNW 19 31 1006.5 - 5.6 - - - - - - -
31/12:24am 12.1 NW 19 29 1006.6 - 5.4 - - - - - - -
31/12:00am 12.3 NW 18 25 1006.3 - 3.4 - - - - - - -
 
Date/Time
EST
Temp
°C
Wind Pressure Rain since
9am
mm
Weather Cloud Vis
km
Sea
Height
m
Swell
Dir  Spd
kts
Gust
kts
hPa Trend Height
m
Period
s
Dir
30/11:30pm 13.0 NNW 20 26 1006.3 - 1.6 - - - - - - -
30/11:02pm 12.5 NNW 19 29 1006.6 - 1.6 - - - - - - -
30/11:00pm 12.6 NNW 20 29 1006.6 - 1.6 - - - - - - -
30/10:40pm 12.6 N 17 28 1006.8 - 1.6 - - - - - - -
30/10:30pm 12.5 N 16 24 1006.9 - 1.6 - - - - - - -
30/10:00pm 11.9 N 14 20 1007.6 - 1.6 - - - - - - -
30/09:30pm 11.9 N 13 18 1008.2 - 1.6 - - - - - - -
30/09:00pm 11.8 N 14 19 1008.6 - 1.6 - - - - - - -
30/08:30pm 12.0 N 12 19 1008.9 - 1.4 - - - - - - -
30/08:00pm 11.9 N 10 16 1009.1 - 1.4 - - - - - - -
30/07:30pm 11.9 N 10 15 1009.7 - 1.4 - - - - - - -
30/07:00pm 11.8 N 10 13 1010.0 - 1.4 - - - - - - -
30/06:30pm 11.5 N 10 12 1010.5 - 1.4 - - - - - - -
30/06:00pm 11.4 NNE 9 13 1010.4 - 1.4 - - - - - - -
30/05:30pm 11.3 N 9 13 1011.0 - 1.4 - - - - - - -
30/05:00pm 11.3 N 9 13 1011.5 - 1.4 - - - - - - -
30/04:30pm 11.3 N 9 12 1011.6 - 1.4 - - - - - - -
30/04:00pm 11.4 N 8 11 1012.0 - 1.4 - - - - - - -
30/03:30pm 11.5 N 9 11 1013.1 - 1.2 - - - - - - -
30/03:00pm 11.8 N 8 11 1013.0 - 1.2 - - - - - - -
30/02:30pm 11.1 NNE 8 15 1013.4 - 1.2 - - - - - - -
30/02:00pm 9.5 E 12 16 1013.6 - 1.2 - - - - - - -
30/01:30pm 8.8 E 12 16 1014.3 - 1.0 - - - - - - -
30/01:00pm 9.8 ENE 10 12 1015.1 - 0.0 - - - - - - -
30/12:30pm 10.4 ENE 11 14 1015.9 - 0.0 - - - - - - -
30/12:00pm 10.6 ENE 12 15 1016.7 - 0.0 - - - - - - -
30/11:30am 11.1 ENE 12 16 1016.9 - 0.0 - - - - - - -
30/11:00am 10.9 ENE 10 13 1017.5 - 0.0 - - - - - - -
30/10:30am 9.8 ENE 9 11 1018.1 - 0.0 - - - - - - -
30/10:00am 6.8 S 4 4 1018.4 - 0.0 - - - - - - -
30/09:30am 4.5 CALM 0 4 1018.8 - 0.0 - - - - - - -
30/09:00am 3.1 CALM 0 0 1019.1 - 2.0 - - - - - - -
30/08:30am 1.5 S 1 4 1019.1 - 2.0 - - - - - - -
30/08:00am 0.7 S 3 4 1019.0 - 2.0 - - - - - - -
30/07:30am 0.4 S 5 6 1019.0 - 2.0 - - - - - - -
30/07:00am 0.1 S 3 5 1019.2 - 2.0 - - - - - - -
30/06:30am 0.1 S 4 5 1019.2 - 2.0 - - - - - - -
30/06:00am 0.4 S 5 5 1019.3 - 1.8 - - - - - - -
30/05:30am 0.6 S 5 6 1019.4 - 1.8 - - - - - - -
30/05:00am 0.8 S 5 5 1019.6 - 1.8 - - - - - - -
30/04:30am 1.2 S 4 6 1019.4 - 1.8 - - - - - - -
30/04:00am 2.2 SSW 5 5 1019.3 - 1.8 - - - - - - -
30/03:30am 3.2 SW 5 5 1019.4 - 1.8 - - - - - - -
30/03:00am 3.0 WSW 3 4 1019.7 - 1.8 - - - - - - -
30/02:30am 3.8 WSW 4 5 1019.7 - 1.8 - - - - - - -
30/02:00am 4.1 W 7 9 1019.5 - 1.8 - - - - - - -
30/01:30am 4.3 W 5 6 1019.4 - 1.8 - - - - - - -
30/01:00am 3.9 W 6 9 1019.2 - 1.8 - - - - - - -
30/12:30am 4.1 W 6 7 1019.3 - 1.8 - - - - - - -
30/12:00am 5.3 W 5 7 1019.3 - 1.8 - - - - - - -
 
Date/Time
EST
Temp
°C
Wind Pressure Rain since
9am
mm
Weather Cloud Vis
km
Sea
Height
m
Swell
Dir  Spd
kts
Gust
kts
hPa Trend Height
m
Period
s
Dir
29/11:30pm 6.3 W 7 8 1019.3 - 1.8 - - - - - - -
29/11:00pm 7.3 W 7 8 1019.0 - 1.8 - - - - - - -
29/10:30pm 7.0 W 7 8 1018.8 - 1.8 - - - - - - -
29/10:00pm 7.6 WSW 11 13 1018.3 - 1.8 - - - - - - -
29/09:30pm 8.0 WSW 12 15 1018.2 - 1.8 - - - - - - -
29/09:00pm 8.4 SW 9 11 1018.0 - 1.8 - - - - - - -
29/08:30pm 9.0 WSW 10 13 1017.5 - 1.8 - - - - - - -
29/08:00pm 8.9 SW 11 15 1017.0 - 1.8 - - - - - - -
29/07:30pm 9.6 SW 15 19 1016.5 - 1.8 - - - - - - -
29/07:00pm 10.1 SW 12 17 1016.1 - 1.8 - - - - - - -
29/06:30pm 10.3 WSW 14 18 1015.5 - 1.8 - - - - - - -
29/06:00pm 10.3 SW 15 19 1014.9 - 1.8 - - - - - - -
29/05:30pm 10.9 SW 19 27 1014.5 - 1.8 - - - - - - -
29/05:00pm 10.9 WSW 16 21 1013.8 - 1.8 - - - - - - -
29/04:50pm 11.0 WSW 17 27 1013.8 - 1.8 - - - - - - -
29/04:30pm 11.2 WSW 19 28 1013.6 - 1.8 - - - - - - -
29/04:24pm 11.2 WSW 18 28 1013.5 - 1.8 - - - - - - -
29/04:00pm 11.5 W 20 26 1013.3 - 1.6 - - - - - - -
29/03:30pm 11.2 WSW 18 25 1013.1 - 1.6 - - - - - - -
29/03:00pm 12.0 W 20 27 1012.9 - 0.4 - - - - - - -
29/02:30pm 12.4 W 23 31 1012.7 - 0.4 - - - - - - -
29/02:26pm 12.6 W 23 33 1012.6 - 0.4 - - - - - - -
29/02:00pm 12.7 W 22 29 1012.4 - 0.4 - - - - - - -
29/01:30pm 13.2 W 21 31 1012.7 - 0.2 - - - - - - -
29/01:03pm 13.1 W 21 31 1012.8 - 0.2 - - - - - - -
29/01:00pm 13.0 W 21 28 1012.8 - 0.2 - - - - - - -
29/12:44pm 12.6 W 18 28 1013.0 - 0.2 - - - - - - -
29/12:30pm 13.1 W 19 24 1013.3 - 0.2 - - - - - - -
29/12:02pm 13.4 W 21 31 1013.4 - 0.2 - - - - - - -
29/12:00pm 13.3 W 22 31 1013.4 - 0.2 - - - - - - -
29/11:30am 12.9 W 19 29 1013.6 - 0.2 - - - - - - -
29/11:02am 12.6 W 19 29 1013.8 - 0.2 - - - - - - -
29/11:00am 12.8 W 20 29 1013.8 - 0.2 - - - - - - -
29/10:30am 12.6 W 18 28 1013.7 - 0.2 - - - - - - -
29/10:29am 12.4 W 17 28 1013.7 - 0.2 - - - - - - -
29/10:00am 11.6 W 16 21 1013.6 - 0.2 - - - - - - -
29/09:30am 11.4 W 14 18 1013.5 - 0.0 - - - - - - -
29/09:00am 10.9 WSW 11 16 1013.8 - 2.0 - - - - - - -
29/08:30am 10.7 W 10 14 1013.9 - 2.0 - - - - - - -
29/08:00am 10.1 W 10 14 1013.8 - 2.0 - - - - - - -
29/07:30am 10.2 W 10 15 1013.7 - 2.0 - - - - - - -
29/07:00am 9.9 W 7 8 1014.0 - 2.0 - - - - - - -
29/06:30am 10.1 W 9 11 1014.0 - 1.8 - - - - - - -
29/06:00am 10.1 W 10 14 1013.9 - 1.8 - - - - - - -
29/05:30am 10.2 W 11 15 1013.7 - 1.8 - - - - - - -
29/05:00am 10.3 W 11 15 1013.6 - 1.8 - - - - - - -
29/04:30am 10.3 W 11 15 1013.7 - 1.8 - - - - - - -
29/04:00am 10.3 W 11 15 1013.9 - 1.8 - - - - - - -
29/03:30am 10.2 W 11 14 1013.9 - 1.8 - - - - - - -
29/03:00am 10.5 W 12 16 1014.1 - 1.8 - - - - - - -
29/02:30am 10.4 W 10 13 1014.5 - 1.8 - - - - - - -
29/02:00am 10.2 W 11 14 1014.5 - 1.8 - - - - - - -
29/01:30am 10.2 W 12 16 1014.8 - 1.8 - - - - - - -
29/01:00am 10.1 W 12 16 1015.0 - 1.8 - - - - - - -
29/12:30am 10.0 W 13 16 1015.1 - 1.8 - - - - - - -
29/12:00am 10.1 W 9 11 1015.6 - 1.8 - - - - - - -
 
Date/Time
EST
Temp
°C
Wind Pressure Rain since
9am
mm
Weather Cloud Vis
km
Sea
Height
m
Swell
Dir  Spd
kts
Gust
kts
hPa Trend Height
m
Period
s
Dir
28/11:30pm 10.2 W 13 18 1015.6 - 1.6 - - - - - - -
28/11:00pm 10.1 W 13 17 1015.7 - 1.4 - - - - - - -
28/10:30pm 10.0 W 11 18 1016.1 - 1.2 - - - - - - -
28/10:00pm 10.0 W 12 16 1016.3 - 1.0 - - - - - - -
28/09:30pm 9.3 W 8 11 1016.6 - 1.0 - - - - - - -
28/09:00pm 9.6 W 10 16 1016.8 - 1.0 - - - - - - -
28/08:30pm 10.0 W 10 14 1016.9 - 1.0 - - - - - - -
28/08:00pm 10.0 WSW 10 14 1017.1 - 1.0 - - - - - - -
28/07:30pm 9.8 W 8 10 1017.1 - 0.8 - - - - - - -
28/07:00pm 10.1 WSW 8 11 1016.9 - 0.8 - - - - - - -
28/06:30pm 9.5 WSW 7 11 1016.7 - 0.8 - - - - - - -
28/06:00pm 9.9 WSW 10 14 1016.6 - 0.8 - - - - - - -
28/05:30pm 10.3 W 15 25 1016.3 - 0.8 - - - - - - -
28/05:00pm 11.1 W 14 22 1016.2 - 0.8 - - - - - - -
28/04:30pm 10.9 W 16 24 1016.1 - 0.8 - - - - - - -
28/04:00pm 11.4 W 16 22 1015.7 - 0.8 - - - - - - -
28/03:30pm 11.9 WSW 16 26 1015.3 - 0.8 - - - - - - -
28/03:02pm 12.4 W 17 27 1015.0 - 0.8 - - - - - - -
28/03:00pm 12.3 W 17 24 1015.0 - 0.8 - - - - - - -
28/02:30pm 12.1 W 22 30 1014.8 - 0.8 - - - - - - -
28/02:04pm 12.2 WSW 16 26 1015.1 - 0.8 - - - - - - -
28/02:00pm 12.3 W 18 26 1015.1 - 0.8 - - - - - - -
28/01:30pm 12.2 W 21 30 1015.4 - 0.8 - - - - - - -
28/01:00pm 11.2 W 19 29 1015.6 - 0.8 - - - - - - -
28/12:30pm 12.0 W 21 33 1015.9 - 0.6 - - - - - - -
28/12:22pm 12.3 W 18 33 1015.8 - 0.6 - - - - - - -
28/12:00pm 11.3 W 18 26 1016.0 - 0.6 - - - - - - -
28/11:41am 11.2 W 21 32 1016.0 - 0.4 - - - - - - -
28/11:30am 11.6 W 19 27 1016.1 - 0.4 - - - - - - -
28/11:00am 11.2 W 19 28 1016.3 - 0.4 - - - - - - -
28/10:38am 11.9 W 19 32 1015.9 - 0.2 - - - - - - -

Other Formats:

Comma delimited format used in spreadsheet applications
http://www.bom.gov.au/fwo/IDT60701/IDT60701.94953.axf

JavaScript Object Notation format (JSON) in row-major order
http://www.bom.gov.au/fwo/IDT60701/IDT60701.94953.json